Latest Weather Observations for Braidwood

IDN60801

Issued at 2:33 pm EST Thursday 25 August 2016 (issued every 30 minutes, with the page automatically refreshed every 10 minutes)

About weather observations | Map of weather stations | Latest weather observations for NSW | Other Formats
Station Details ID: 069132 Name: BRAIDWOOD RACECOURSE AWS Lat: -35.43 Lon: 149.78 Height: 665.2 m
Data from the previous 72 hours. | See also: Recent months at Braidwood
Date/Time
EST
Temp
°C
App
Temp
°C
Dew
Point
°C
Rel
Hum
%
Delta-T
°C
Wind Press
QNH
hPa
Press
MSL
hPa
Rain since
9am
mm
Dir  Spd
km/h
Gust
km/h
Spd
kts
Gust
kts
25/02:30pm 10.3 6.3 0.6 51 4.1 W 11 17 6 9 1009.9 1010.5 0.0
25/02:00pm 11.0 6.3 0.7 49 4.4 W 15 24 8 13 1009.7 1010.3 0.0
25/01:30pm 10.5 6.1 0.3 49 4.3 WNW 13 20 7 11 1009.7 1010.3 0.0
25/01:00pm 10.6 5.2 1.2 52 4.1 W 19 24 10 13 1009.7 1010.3 0.0
25/12:30pm 10.1 5.4 1.2 54 3.8 WNW 15 24 8 13 1010.0 1010.7 0.0
25/12:00pm 9.5 5.4 -0.1 51 4.0 W 11 20 6 11 1010.2 1010.9 0.0
25/11:30am 9.7 5.5 1.6 57 3.5 WNW 13 19 7 10 1010.4 1011.1 0.0
25/11:00am 9.7 6.7 2.3 60 3.3 NE 7 11 4 6 1010.6 1011.3 0.0
25/10:30am 8.3 5.3 0.8 59 3.1 NNE 6 9 3 5 1010.7 1011.4 0.0
25/10:00am 6.8 4.1 0.5 64 2.6 SSW 4 7 2 4 1011.0 1011.6 0.0
25/09:30am 6.4 3.2 0.7 67 2.3 S 7 13 4 7 1010.8 1011.5 0.0
25/09:00am 5.8 2.6 1.0 71 2.0 SSW 7 11 4 6 1010.8 1011.5 15.4
25/08:30am 4.8 1.8 0.8 75 1.6 SW 6 9 3 5 1011.0 1011.6 15.4
25/08:00am 4.2 0.9 0.2 75 1.6 WSW 7 9 4 5 1010.8 1011.5 15.4
25/07:30am 2.8 -0.3 1.2 89 0.6 WSW 7 9 4 5 1010.5 1011.2 15.4
25/07:00am 1.6 -1.7 -0.2 88 0.7 WSW 7 9 4 5 1010.2 1010.9 15.4
25/06:30am 1.6 -1.6 0.6 93 0.4 WSW 7 9 4 5 1009.8 1010.4 15.4
25/06:00am 1.7 -0.6 0.2 90 0.6 WSW 2 7 1 4 1009.2 1009.9 15.4
25/05:30am 2.6 0.8 1.3 91 0.5 CALM 0 0 0 0 1008.9 1009.6 15.4
25/05:00am 3.0 -0.1 1.5 90 0.6 WSW 7 11 4 6 1008.8 1009.5 15.4
25/04:30am 4.5 1.6 2.4 86 0.9 SW 7 11 4 6 1008.6 1009.2 15.4
25/04:00am 4.8 1.9 2.7 86 0.9 SW 7 11 4 6 1008.3 1008.9 15.4
25/03:30am 4.5 1.9 3.3 92 0.5 S 6 9 3 5 1008.4 1009.0 15.4
25/03:00am 4.2 2.7 3.0 92 0.5 CALM 0 4 0 2 1008.4 1009.0 15.4
25/02:30am 4.2 2.3 3.0 92 0.5 SSW 2 6 1 3 1008.5 1009.1 15.4
25/02:00am 4.4 1.6 3.1 91 0.6 SSW 7 13 4 7 1008.6 1009.2 15.4
25/01:30am 4.2 1.4 2.9 91 0.6 SSW 7 13 4 7 1008.7 1009.4 15.2
25/01:00am 4.2 0.6 2.9 91 0.6 SSW 11 15 6 8 1009.1 1009.8 15.2
25/12:30am 4.1 0.1 2.9 92 0.5 SSW 13 19 7 10 1009.4 1010.0 15.2
25/12:00am 4.1 0.1 2.9 92 0.5 SSW 13 20 7 11 1009.4 1010.0 14.8
 
Date/Time
EST
Temp
°C
App
Temp
°C
Dew
Point
°C
Rel
Hum
%
Delta-T
°C
Wind Press
QNH
hPa
Press
MSL
hPa
Rain since
9am
mm
Dir  Spd
km/h
Gust
km/h
Spd
kts
Gust
kts
24/11:30pm 4.0 0.0 3.0 93 0.4 SW 13 24 7 13 1009.5 1010.1 14.4
24/11:00pm 3.9 -0.5 2.9 93 0.4 SSW 15 20 8 11 1009.5 1010.1 13.8
24/10:30pm 4.0 0.0 3.0 93 0.4 SSW 13 20 7 11 1009.5 1010.1 13.4
24/10:00pm 3.9 -0.1 2.9 93 0.4 SSW 13 19 7 10 1009.7 1010.3 13.4
24/09:30pm 4.1 -0.3 2.9 92 0.5 SSW 15 24 8 13 1009.7 1010.3 13.4
24/09:00pm 4.2 -0.5 2.9 91 0.6 SSW 17 24 9 13 1010.0 1010.7 13.4
24/08:30pm 4.5 -0.2 3.2 91 0.6 SSW 17 22 9 12 1010.1 1010.8 12.8
24/08:00pm 4.7 0.4 3.5 92 0.5 S 15 19 8 10 1010.2 1010.9 12.2
24/07:30pm 4.8 0.1 3.3 90 0.6 S 17 24 9 13 1010.3 1011.0 11.6
24/07:00pm 4.8 0.5 3.5 91 0.6 S 15 20 8 11 1010.3 1011.0 11.0
24/06:30pm 5.0 1.6 3.8 92 0.5 S 11 15 6 8 1010.5 1011.2 10.6
24/06:00pm 4.9 1.8 3.6 91 0.6 SSE 9 13 5 7 1010.5 1011.2 9.6
24/05:30pm 5.1 1.6 3.3 88 0.8 S 11 15 6 8 1010.3 1011.0 8.8
24/05:00pm 5.6 2.7 4.4 92 0.5 SSE 9 13 5 7 1009.9 1010.5 8.4
24/04:30pm 5.6 2.2 4.2 91 0.6 SSE 11 17 6 9 1009.9 1010.5 7.2
24/04:00pm 6.0 3.1 4.6 91 0.6 SE 9 13 5 7 1009.9 1010.5 5.8
24/03:30pm 5.9 2.9 4.1 88 0.8 SSE 9 13 5 7 1010.0 1010.7 5.0
24/03:00pm 6.0 3.0 4.3 89 0.8 SE 9 17 5 9 1010.0 1010.7 4.6
24/02:30pm 5.9 2.1 4.1 88 0.8 SSE 13 15 7 8 1010.0 1010.7 4.0
24/02:00pm 6.0 3.3 3.5 84 1.1 SSW 7 13 4 7 1010.8 1011.5 2.4
24/01:30pm 6.5 3.3 3.3 80 1.4 SW 9 15 5 8 1011.0 1011.6 1.0
24/01:00pm 7.4 4.3 3.6 77 1.7 SSW 9 13 5 7 1011.2 1011.8 0.2
24/12:30pm 7.7 3.6 2.2 68 2.4 SSE 13 19 7 10 1011.4 1012.1 0.0
24/12:00pm 8.2 4.8 2.0 65 2.7 SE 9 15 5 8 1012.2 1012.9 0.0
24/11:30am 8.2 4.4 4.0 75 1.9 S 13 19 7 10 1012.7 1013.4 0.0
24/11:00am 8.4 5.3 3.5 71 2.2 SSE 9 13 5 7 1013.5 1014.2 0.0
24/10:30am 8.6 5.5 3.6 71 2.2 SSE 9 15 5 8 1013.4 1014.1 0.0
24/10:00am 8.7 6.2 4.7 76 1.8 SSE 7 13 4 7 1013.8 1014.6 0.0
24/09:30am 7.4 4.4 4.2 80 1.4 SSE 9 15 5 8 1014.4 1015.1 0.0
24/09:00am 6.8 3.0 4.1 83 1.2 SSE 13 17 7 9 1014.7 1015.4 1.2
24/08:30am 6.3 3.0 4.3 87 0.9 S 11 15 6 8 1015.0 1015.7 1.2
24/08:00am 5.7 2.7 4.0 89 0.8 S 9 11 5 6 1014.7 1015.4 1.2
24/07:30am 5.4 2.7 3.9 90 0.7 S 7 11 4 6 1014.7 1015.4 1.2
24/07:00am 5.1 2.4 3.9 92 0.5 S 7 11 4 6 1014.4 1015.1 1.2
24/06:30am 5.0 2.3 3.7 91 0.6 SSE 7 7 4 4 1014.5 1015.2 1.2
24/06:00am 5.1 2.4 3.8 91 0.6 SSE 7 11 4 6 1014.5 1015.2 1.2
24/05:30am 5.2 2.5 3.9 91 0.6 SSE 7 9 4 5 1014.6 1015.3 1.2
24/05:00am 5.3 2.6 3.8 90 0.7 SSE 7 9 4 5 1014.6 1015.3 1.0
24/04:30am 5.3 2.8 4.0 91 0.6 SE 6 7 3 4 1014.6 1015.3 1.0
24/04:00am 5.5 3.5 4.2 91 0.6 SE 4 4 2 2 1014.8 1015.5 1.0
24/03:30am 5.5 2.9 4.2 91 0.6 SSE 7 9 4 5 1014.6 1015.3 1.0
24/03:00am 5.5 3.1 4.2 91 0.6 S 6 7 3 4 1014.6 1015.3 1.0
24/02:30am 5.6 4.4 4.6 93 0.4 CALM 0 0 0 0 1015.1 1015.9 1.0
24/02:00am 5.6 3.6 4.6 93 0.4 SSE 4 6 2 3 1015.4 1016.2 1.0
24/01:30am 5.9 4.3 4.7 92 0.5 SSE 2 4 1 2 1015.8 1016.5 1.0
24/01:00am 6.0 4.5 4.8 92 0.5 SSE 2 4 1 2 1016.1 1016.8 1.0
24/12:30am 6.2 3.9 5.0 92 0.5 S 6 7 3 4 1016.3 1017.0 1.0
24/12:00am 6.2 3.8 5.2 93 0.5 S 7 9 4 5 1016.2 1016.9 1.0
 
Date/Time
EST
Temp
°C
App
Temp
°C
Dew
Point
°C
Rel
Hum
%
Delta-T
°C
Wind Press
QNH
hPa
Press
MSL
hPa
Rain since
9am
mm
Dir  Spd
km/h
Gust
km/h
Spd
kts
Gust
kts
23/11:30pm 6.3 4.1 5.1 92 0.5 SSE 6 7 3 4 1016.3 1017.0 1.0
23/11:00pm 6.3 3.9 5.1 92 0.5 S 7 9 4 5 1016.7 1017.5 1.0
23/10:30pm 6.3 4.1 5.4 94 0.4 S 6 7 3 4 1016.6 1017.4 1.0
23/10:00pm 6.4 4.2 5.2 92 0.5 S 6 7 3 4 1016.4 1017.2 1.0
23/09:30pm 6.5 4.7 5.3 92 0.6 SE 4 4 2 2 1017.0 1017.8 1.0
23/09:00pm 6.4 4.0 5.2 92 0.5 SE 7 9 4 5 1016.7 1017.5 1.0
23/08:30pm 6.2 3.8 5.2 93 0.5 SSE 7 9 4 5 1016.4 1017.2 1.0
23/08:00pm 6.4 4.5 5.0 91 0.6 SE 4 6 2 3 1016.3 1017.0 1.0
23/07:30pm 6.7 4.9 5.3 91 0.6 SE 4 6 2 3 1016.7 1017.5 1.0
23/07:00pm 6.9 4.7 5.5 91 0.6 SE 6 11 3 6 1016.4 1017.2 1.0
23/06:30pm 7.1 4.4 5.4 89 0.8 SE 9 9 5 5 1015.9 1016.6 1.0
23/06:00pm 7.2 4.5 5.5 89 0.8 ESE 9 13 5 7 1015.5 1016.3 1.0
23/05:30pm 7.6 4.9 5.7 88 0.9 ESE 9 13 5 7 1015.6 1016.4 1.0
23/05:00pm 8.2 5.2 6.0 86 1.0 ESE 11 15 6 8 1015.0 1015.7 1.0
23/04:30pm 8.6 5.9 5.7 82 1.4 ESE 9 15 5 8 1015.1 1015.9 1.0
23/04:00pm 9.9 6.3 4.9 71 2.3 E 13 15 7 8 1014.4 1015.1 0.0
23/03:30pm 10.2 7.8 4.4 67 2.7 WSW 6 6 3 3 1014.0 1014.8 0.0
23/03:00pm 9.9 6.2 4.3 68 2.6 W 13 17 7 9 1013.7 1014.4 0.0
23/02:30pm 10.7 8.7 2.3 56 3.7 SSW 2 6 1 3 1013.6 1014.3 0.0
23/02:00pm 10.5 7.6 2.4 57 3.6 S 7 13 4 7 1013.6 1014.3 0.0
23/01:30pm 10.3 7.1 2.9 60 3.3 SE 9 13 5 7 1013.7 1014.4 0.0
23/01:00pm 10.1 6.8 2.2 58 3.5 ESE 9 17 5 9 1013.9 1014.7 0.0
23/12:30pm 10.5 7.3 3.1 60 3.3 ESE 9 15 5 8 1014.7 1015.4 0.0
23/12:00pm 9.8 6.1 2.2 59 3.3 SE 11 20 6 11 1014.4 1015.1 0.0
23/11:30am 9.0 6.2 3.0 66 2.7 SE 7 11 4 6 1015.1 1015.9 0.0
23/11:00am 8.7 5.1 2.7 66 2.6 S 11 15 6 8 1015.6 1016.4 0.0
23/10:30am 8.1 3.7 2.8 69 2.3 SSE 15 24 8 13 1015.2 1016.0 0.0
23/10:00am 7.6 2.9 2.9 72 2.1 SSE 17 22 9 12 1014.7 1015.4 0.0
23/09:30am 7.3 2.0 3.2 75 1.8 S 20 28 11 15 1014.3 1015.0 0.0
23/09:00am 6.5 3.6 4.5 87 0.9 SSE 9 13 5 7 1013.8 1014.6 1.2
23/08:30am 6.0 2.5 3.3 83 1.2 S 11 15 6 8 1013.9 1014.7 1.2
23/08:00am 6.1 1.8 3.1 81 1.3 SSW 15 20 8 11 1013.8 1014.6 1.2
23/07:30am 5.9 1.9 3.1 82 1.2 SSW 13 20 7 11 1013.6 1014.3 1.2
23/07:00am 5.6 2.5 3.6 87 0.9 S 9 19 5 10 1013.3 1014.0 1.2
23/06:30am 5.7 1.1 3.5 86 1.0 S 17 22 9 12 1013.2 1013.9 1.2
23/06:00am 6.0 2.7 4.5 90 0.7 S 11 15 6 8 1012.9 1013.6 1.2
23/05:30am 6.1 3.5 4.4 89 0.8 S 7 13 4 7 1012.7 1013.4 1.2
23/05:00am 6.1 3.6 4.7 91 0.6 S 7 13 4 7 1012.6 1013.3 1.2
23/04:30am 6.3 4.1 5.1 92 0.5 SSW 6 7 3 4 1012.4 1013.1 1.0
23/04:00am 6.1 3.9 5.1 93 0.5 WSW 6 9 3 5 1012.1 1012.8 1.0
23/03:30am 6.1 4.6 5.1 93 0.5 SW 2 6 1 3 1012.0 1012.7 1.0
23/03:00am 6.1 4.6 4.9 92 0.5 SSE 2 4 1 2 1011.9 1012.6 0.6
23/02:30am 6.4 4.5 4.9 90 0.7 SSW 4 7 2 4 1011.7 1012.4 0.2
23/02:00am 6.6 5.4 4.6 87 0.9 CALM 0 0 0 0 1011.7 1012.4 0.0
23/01:30am 6.6 5.4 4.4 86 1.0 CALM 0 0 0 0 1011.8 1012.5 0.0
23/01:00am 6.3 4.9 3.8 84 1.1 CALM 0 0 0 0 1012.1 1012.8 0.0
23/12:30am 6.5 5.1 3.8 83 1.2 CALM 0 0 0 0 1012.2 1012.9 0.0
23/12:00am 6.8 5.1 3.8 81 1.3 SSW 2 6 1 3 1012.1 1012.8 0.0
 
Date/Time
EST
Temp
°C
App
Temp
°C
Dew
Point
°C
Rel
Hum
%
Delta-T
°C
Wind Press
QNH
hPa
Press
MSL
hPa
Rain since
9am
mm
Dir  Spd
km/h
Gust
km/h
Spd
kts
Gust
kts
22/11:30pm 6.9 5.6 3.9 81 1.3 CALM 0 0 0 0 1012.1 1012.8 0.0
22/11:00pm 6.6 5.2 3.8 82 1.2 CALM 0 0 0 0 1012.1 1012.8 0.0
22/10:30pm 6.9 4.8 3.9 81 1.3 SW 4 4 2 2 1012.7 1013.4 0.0
22/10:00pm 6.3 5.0 4.3 87 0.9 CALM 0 0 0 0 1013.0 1013.7 0.0
22/09:30pm 6.3 5.0 4.1 86 1.0 CALM 0 0 0 0 1013.1 1013.8 0.0
22/09:00pm 6.5 5.1 3.8 83 1.2 CALM 0 0 0 0 1013.0 1013.7 0.0
22/08:30pm 6.2 4.8 3.7 84 1.1 CALM 0 0 0 0 1013.0 1013.7 0.0
22/08:00pm 7.2 5.9 4.2 81 1.4 CALM 0 0 0 0 1013.0 1013.7 0.0
22/07:30pm 6.9 4.8 3.9 81 1.3 S 4 6 2 3 1012.7 1013.4 0.0
22/07:00pm 7.3 5.2 3.7 78 1.6 SE 4 6 2 3 1012.4 1013.1 0.0
22/06:30pm 7.7 5.5 3.2 73 2.0 SE 4 6 2 3 1013.1 1013.8 0.0
22/06:00pm 8.0 6.6 3.7 74 1.9 CALM 0 0 0 0 1013.1 1013.8 0.0
22/05:30pm 8.7 6.4 2.9 67 2.6 N 4 7 2 4 1012.8 1013.5 0.0
22/05:00pm 9.6 7.2 2.2 60 3.3 NE 4 9 2 5 1012.1 1012.8 0.0
22/04:30pm 10.5 7.7 1.9 55 3.8 NE 6 7 3 4 1012.0 1012.7 0.0
22/04:00pm 11.3 8.8 1.5 51 4.3 NNE 4 13 2 7 1012.2 1012.9 0.0
22/03:30pm 12.6 9.6 2.2 49 4.7 NNE 7 13 4 7 1012.3 1013.0 0.0
22/03:00pm 12.8 9.7 0.2 42 5.5 NNE 6 20 3 11 1012.6 1013.3 0.0

Other Formats:

Comma delimited format used in spreadsheet applications
http://www.bom.gov.au/fwo/IDN60801/IDN60801.94927.axf

JavaScript Object Notation format (JSON) in row-major order
http://www.bom.gov.au/fwo/IDN60801/IDN60801.94927.json